createdAt,value
2019-05-15T00:00:28.905Z,1018.26
2019-05-15T00:05:29.181Z,1018.25
2019-05-15T00:10:28.772Z,1018.29
2019-05-15T00:15:27.923Z,1018.26
2019-05-15T00:20:25.967Z,1018.22
2019-05-15T00:25:25.090Z,1018.24
2019-05-15T00:30:24.678Z,1018.26
2019-05-15T00:35:23.790Z,1018.21
2019-05-15T00:40:28.778Z,1018.15
2019-05-15T00:45:23.748Z,1018.14
2019-05-15T00:50:24.691Z,1018.16
2019-05-15T00:55:24.742Z,1018.11
2019-05-15T01:00:24.903Z,1018.09
2019-05-15T01:05:24.849Z,1018.09
2019-05-15T01:10:23.904Z,1018.06
2019-05-15T01:15:24.693Z,1017.99
2019-05-15T01:20:24.840Z,1017.99
2019-05-15T01:25:24.726Z,1017.84
2019-05-15T01:30:23.694Z,1017.86
2019-05-15T01:35:23.695Z,1017.97
2019-05-15T01:40:24.269Z,1017.85
2019-05-15T01:45:22.018Z,1017.74
2019-05-15T01:50:20.890Z,1017.64
2019-05-15T01:55:20.129Z,1017.64
2019-05-15T02:00:19.751Z,1017.58
2019-05-15T02:05:19.719Z,1017.57
2019-05-15T02:10:19.886Z,1017.67
2019-05-15T02:15:19.786Z,1017.62
2019-05-15T02:20:18.818Z,1017.60
2019-05-15T02:25:18.571Z,1017.67
2019-05-15T02:30:27.866Z,1017.71
2019-05-15T02:35:18.518Z,1017.73
2019-05-15T02:40:19.507Z,1017.73
2019-05-15T02:45:19.518Z,1017.77
2019-05-15T02:50:20.190Z,1017.77
2019-05-15T02:55:19.657Z,1017.73
2019-05-15T03:00:35.871Z,1017.73
2019-05-15T03:05:19.587Z,1017.68
2019-05-15T03:15:19.393Z,1017.68
2019-05-15T03:20:18.533Z,1017.70
2019-05-15T03:25:18.967Z,1017.67
2019-05-15T03:30:21.091Z,1017.75
2019-05-15T03:35:16.119Z,1017.71
2019-05-15T03:40:19.238Z,1017.79
2019-05-15T03:45:14.745Z,1017.84
2019-05-15T03:50:14.790Z,1017.93
2019-05-15T03:55:14.849Z,1017.85
2019-05-15T04:00:14.802Z,1017.90
2019-05-15T04:05:13.761Z,1017.88
2019-05-15T04:10:14.619Z,1017.89
2019-05-15T04:15:12.007Z,1017.88
2019-05-15T04:20:11.217Z,1017.84
2019-05-15T04:25:10.815Z,1017.75
2019-05-15T04:30:11.207Z,1017.78
2019-05-15T04:35:10.762Z,1017.70
2019-05-15T04:40:10.302Z,1017.80
2019-05-15T04:45:10.536Z,1017.84
2019-05-15T04:50:09.322Z,1017.81
2019-05-15T04:55:10.256Z,1017.88
2019-05-15T05:00:09.613Z,1017.89
2019-05-15T05:05:10.133Z,1017.84
2019-05-15T05:10:09.174Z,1017.86
2019-05-15T05:15:08.256Z,1017.87
2019-05-15T05:20:04.751Z,1017.91
2019-05-15T05:25:07.845Z,1017.90
2019-05-15T05:30:08.152Z,1017.83
2019-05-15T05:35:08.215Z,1017.85
2019-05-15T05:40:08.356Z,1017.86
2019-05-15T05:45:04.782Z,1017.94
2019-05-15T05:50:04.816Z,1017.87
2019-05-15T05:55:05.833Z,1017.88
2019-05-15T06:00:09.255Z,1017.78
2019-05-15T06:05:07.904Z,1017.80
2019-05-15T06:10:08.618Z,1017.72
2019-05-15T06:15:05.535Z,1017.83
2019-05-15T06:20:04.959Z,1017.73
2019-05-15T06:30:03.277Z,1017.80
2019-05-15T06:35:01.970Z,1017.76
2019-05-15T06:40:05.438Z,1017.78
2019-05-15T06:45:00.333Z,1017.80
2019-05-15T06:49:58.815Z,1017.71
2019-05-15T06:59:58.023Z,1017.75
2019-05-15T07:04:58.795Z,1017.66
2019-05-15T07:09:59.940Z,1017.70
2019-05-15T07:14:58.799Z,1017.58
2019-05-15T07:19:59.293Z,1017.61
2019-05-15T07:29:58.181Z,1017.54
2019-05-15T07:34:55.127Z,1017.54
2019-05-15T07:39:59.119Z,1017.44
2019-05-15T07:44:55.020Z,1017.43
2019-05-15T07:49:53.870Z,1017.36
2019-05-15T07:54:53.830Z,1017.40
2019-05-15T07:59:53.862Z,1017.39
2019-05-15T08:04:53.777Z,1017.27
2019-05-15T08:09:55.090Z,1017.20
2019-05-15T08:14:54.556Z,1017.19
2019-05-15T08:19:53.139Z,1017.17
2019-05-15T08:24:53.151Z,1017.04
2019-05-15T08:29:52.070Z,1017.06
2019-05-15T08:34:52.267Z,1017.01
2019-05-15T08:39:53.654Z,1017.14
2019-05-15T08:44:53.131Z,1017.08
2019-05-15T08:49:52.143Z,1016.90
2019-05-15T08:54:51.575Z,1016.84
2019-05-15T08:59:52.165Z,1016.81
2019-05-15T09:04:53.154Z,1016.74
2019-05-15T09:09:53.398Z,1016.79
2019-05-15T09:14:53.631Z,1016.71
2019-05-15T09:19:56.025Z,1016.75
2019-05-15T09:29:52.333Z,1016.68
2019-05-15T09:34:54.838Z,1016.52
2019-05-15T09:39:51.095Z,1016.61
2019-05-15T09:44:50.084Z,1016.57
2019-05-15T09:49:50.139Z,1016.46
2019-05-15T09:54:50.057Z,1016.41
2019-05-15T09:59:50.110Z,1016.47
2019-05-15T10:05:05.465Z,1016.38
2019-05-15T10:09:52.386Z,1016.44
2019-05-15T10:14:49.206Z,1016.32
2019-05-15T10:19:48.814Z,1016.34
2019-05-15T10:24:50.855Z,1016.24
2019-05-15T10:29:48.383Z,1016.08
2019-05-15T10:34:46.691Z,1016.10
2019-05-15T10:39:46.054Z,1015.98
2019-05-15T10:44:46.144Z,1015.94
2019-05-15T10:49:48.407Z,1015.93
2019-05-15T10:54:46.059Z,1015.84
2019-05-15T10:59:47.819Z,1015.86
2019-05-15T11:04:46.032Z,1015.86
2019-05-15T11:09:48.934Z,1015.73
2019-05-15T11:14:46.123Z,1015.65
2019-05-15T11:19:49.495Z,1015.57
2019-05-15T11:24:48.989Z,1015.49
2019-05-15T11:29:45.065Z,1015.39
2019-05-15T11:34:49.163Z,1015.53
2019-05-15T11:39:47.101Z,1015.32
2019-05-15T11:44:44.265Z,1015.22
2019-05-15T11:49:43.139Z,1015.21
2019-05-15T11:54:43.011Z,1015.12
2019-05-15T11:59:45.662Z,1015.16
2019-05-15T12:04:42.986Z,1015.05
2019-05-15T12:09:43.106Z,1015.05
2019-05-15T12:14:42.025Z,1015.02
2019-05-15T12:19:42.010Z,1014.94
2019-05-15T12:24:42.175Z,1014.92
2019-05-15T12:29:41.025Z,1014.99
2019-05-15T12:34:40.536Z,1014.79
2019-05-15T12:39:41.667Z,1014.73
2019-05-15T14:04:38.622Z,1014.04
2019-05-15T14:09:43.435Z,1014.02
2019-05-15T14:14:38.467Z,1014.10
2019-05-15T14:19:35.073Z,1013.96
2019-05-15T14:24:34.422Z,1013.90
2019-05-15T14:29:34.032Z,1013.84
2019-05-15T14:34:34.003Z,1013.89
2019-05-15T14:39:34.027Z,1013.78
2019-05-15T14:44:34.571Z,1013.81
2019-05-15T14:49:35.359Z,1013.56
2019-05-15T14:54:35.370Z,1013.68
2019-05-15T14:59:33.121Z,1013.62
2019-05-15T15:04:32.035Z,1013.46
2019-05-15T15:09:32.032Z,1013.41
2019-05-15T15:14:32.449Z,1013.43
2019-05-15T15:19:32.007Z,1013.35
2019-05-15T15:24:30.996Z,1013.27
2019-05-15T15:29:30.216Z,1013.19
2019-05-15T15:34:30.015Z,1013.26
2019-05-15T15:39:29.013Z,1013.25
2019-05-15T15:44:28.347Z,1013.18
2019-05-15T15:49:27.893Z,1013.08
2019-05-15T15:54:28.139Z,1013.15
2019-05-15T15:59:26.057Z,1013.15
2019-05-15T16:04:25.140Z,1013.04
2019-05-15T16:09:24.228Z,1013.05
2019-05-15T16:14:24.051Z,1013.14
2019-05-15T16:19:23.216Z,1013.13
2019-05-15T16:24:22.226Z,1013.01
2019-05-15T16:29:21.038Z,1012.88
2019-05-15T16:34:19.997Z,1012.92
2019-05-15T16:39:19.997Z,1012.89
2019-05-15T16:44:21.371Z,1012.84
2019-05-15T16:49:19.114Z,1012.88
2019-05-15T16:54:19.215Z,1012.88
2019-05-15T16:59:18.988Z,1012.86
2019-05-15T17:04:18.999Z,1012.84
2019-05-15T17:09:21.725Z,1012.86
2019-05-15T17:14:19.779Z,1012.82
2019-05-15T17:19:19.029Z,1012.77
2019-05-15T17:24:18.973Z,1012.78
2019-05-15T17:29:19.969Z,1012.74
2019-05-15T17:34:19.958Z,1012.82
2019-05-15T17:39:33.453Z,1012.80
2019-05-15T17:44:19.978Z,1012.74
2019-05-15T17:49:20.988Z,1012.73
2019-05-15T17:54:20.401Z,1012.75
2019-05-15T17:59:19.928Z,1012.75
2019-05-15T18:04:19.217Z,1012.66
2019-05-15T18:09:19.003Z,1012.71
2019-05-15T18:14:18.936Z,1012.67
2019-05-15T18:19:18.855Z,1012.70
2019-05-15T18:24:18.399Z,1012.66
2019-05-15T18:29:17.224Z,1012.73
2019-05-15T18:34:18.598Z,1012.72
2019-05-15T18:39:15.949Z,1012.79
2019-05-15T18:44:18.857Z,1012.76
2019-05-15T18:49:18.000Z,1012.77
2019-05-15T18:54:15.924Z,1012.68
2019-05-15T18:59:14.942Z,1012.77
2019-05-15T19:04:14.079Z,1012.77
2019-05-15T19:09:13.972Z,1012.76
2019-05-15T19:14:14.042Z,1012.72
2019-05-15T19:19:14.094Z,1012.74
2019-05-15T19:24:12.947Z,1012.69
2019-05-15T19:29:12.943Z,1012.73
2019-05-15T19:34:12.925Z,1012.76
2019-05-15T19:39:12.475Z,1012.62
2019-05-15T19:44:10.987Z,1012.69
2019-05-15T19:49:10.961Z,1012.77
2019-05-15T19:54:09.999Z,1012.71
2019-05-15T19:59:09.023Z,1012.74
2019-05-15T20:04:08.988Z,1012.70
2019-05-15T20:09:08.059Z,1012.65
2019-05-15T20:14:06.933Z,1012.59
2019-05-15T20:19:08.594Z,1012.75
2019-05-15T20:24:08.471Z,1012.71
2019-05-15T20:29:09.091Z,1012.67
2019-05-15T20:34:09.369Z,1012.71
2019-05-15T20:39:08.233Z,1012.69
2019-05-15T20:44:06.016Z,1012.80
2019-05-15T20:49:08.552Z,1012.73
2019-05-15T20:54:08.344Z,1012.74
2019-05-15T20:59:08.705Z,1012.70
2019-05-15T21:04:18.909Z,1012.69
2019-05-15T21:09:04.964Z,1012.62
2019-05-15T21:14:05.062Z,1012.64
2019-05-15T21:19:05.113Z,1012.60
2019-05-15T21:24:05.006Z,1012.57
2019-05-15T21:29:04.944Z,1012.59
2019-05-15T21:34:04.967Z,1012.53
2019-05-15T21:39:04.117Z,1012.57
2019-05-15T21:44:03.213Z,1012.52
2019-05-15T21:49:04.019Z,1012.50
2019-05-15T21:54:04.183Z,1012.50
2019-05-15T21:59:03.946Z,1012.40
2019-05-15T22:04:02.917Z,1012.36
2019-05-15T22:09:02.937Z,1012.38
2019-05-15T22:14:01.994Z,1012.39
2019-05-15T22:19:01.959Z,1012.36
2019-05-15T22:24:02.919Z,1012.31
2019-05-15T22:29:01.909Z,1012.28
2019-05-15T22:34:01.030Z,1012.27
2019-05-15T22:39:01.017Z,1012.23
2019-05-15T22:44:02.015Z,1012.19
2019-05-15T22:49:02.894Z,1012.11
2019-05-15T22:54:02.328Z,1012.10
2019-05-15T22:59:03.007Z,1012.00
2019-05-15T23:04:02.937Z,1012.04
2019-05-15T23:09:03.059Z,1012.03
2019-05-15T23:14:02.970Z,1012.00
2019-05-15T23:19:02.958Z,1011.92
2019-05-15T23:24:03.915Z,1011.90
2019-05-15T23:29:02.992Z,1011.83
2019-05-15T23:34:02.937Z,1011.80
2019-05-15T23:39:03.008Z,1011.77
2019-05-15T23:44:03.945Z,1011.79
2019-05-15T23:49:03.992Z,1011.82
2019-05-15T23:54:03.956Z,1011.72
2019-05-15T23:59:04.011Z,1011.70
